sensor_id;sensor_type;location;lat;lon;timestamp;temperature;humidity
5011;DHT22;2524;54.364;10.072;2023-10-19T00:00:35;9.10;99.90
5011;DHT22;2524;54.364;10.072;2023-10-19T00:03:11;9.00;99.90
5011;DHT22;2524;54.364;10.072;2023-10-19T00:05:37;9.10;99.90
5011;DHT22;2524;54.364;10.072;2023-10-19T00:08:04;9.10;99.90
5011;DHT22;2524;54.364;10.072;2023-10-19T00:10:51;9.10;99.90
5011;DHT22;2524;54.364;10.072;2023-10-19T00:13:39;9.10;99.90
5011;DHT22;2524;54.364;10.072;2023-10-19T00:16:06;9.10;99.90
5011;DHT22;2524;54.364;10.072;2023-10-19T00:18:43;9.10;99.90
5011;DHT22;2524;54.364;10.072;2023-10-19T00:21:08;9.10;99.90
5011;DHT22;2524;54.364;10.072;2023-10-19T00:23:51;9.10;99.90
5011;DHT22;2524;54.364;10.072;2023-10-19T00:26:20;9.10;99.90
5011;DHT22;2524;54.364;10.072;2023-10-19T00:28:47;9.10;99.90
5011;DHT22;2524;54.364;10.072;2023-10-19T00:31:18;9.10;99.90
5011;DHT22;2524;54.364;10.072;2023-10-19T00:33:45;9.10;99.90
5011;DHT22;2524;54.364;10.072;2023-10-19T00:36:11;9.10;99.90
5011;DHT22;2524;54.364;10.072;2023-10-19T00:38:41;9.20;99.90
5011;DHT22;2524;54.364;10.072;2023-10-19T00:41:27;9.20;99.90
5011;DHT22;2524;54.364;10.072;2023-10-19T00:43:55;9.20;99.90
5011;DHT22;2524;54.364;10.072;2023-10-19T00:46:29;9.20;99.90
5011;DHT22;2524;54.364;10.072;2023-10-19T00:49:16;9.20;99.90
5011;DHT22;2524;54.364;10.072;2023-10-19T00:51:48;9.20;99.90
5011;DHT22;2524;54.364;10.072;2023-10-19T00:54:39;9.20;99.90
5011;DHT22;2524;54.364;10.072;2023-10-19T00:57:18;9.20;99.90
5011;DHT22;2524;54.364;10.072;2023-10-19T00:59:46;9.30;99.90
5011;DHT22;2524;54.364;10.072;2023-10-19T01:02:15;9.20;99.90
5011;DHT22;2524;54.364;10.072;2023-10-19T01:04:55;9.10;99.90
5011;DHT22;2524;54.364;10.072;2023-10-19T01:07:28;9.10;99.90
5011;DHT22;2524;54.364;10.072;2023-10-19T01:09:55;9.20;99.90
5011;DHT22;2524;54.364;10.072;2023-10-19T01:12:22;9.10;99.90
5011;DHT22;2524;54.364;10.072;2023-10-19T01:17:32;9.10;99.90
5011;DHT22;2524;54.364;10.072;2023-10-19T01:19:59;9.10;99.90
5011;DHT22;2524;54.364;10.072;2023-10-19T01:22:26;9.10;99.90
5011;DHT22;2524;54.364;10.072;2023-10-19T01:24:52;9.10;99.90
5011;DHT22;2524;54.364;10.072;2023-10-19T01:27:19;9.10;99.90
5011;DHT22;2524;54.364;10.072;2023-10-19T01:29:45;9.10;99.90
5011;DHT22;2524;54.364;10.072;2023-10-19T01:32:12;9.10;99.90
5011;DHT22;2524;54.364;10.072;2023-10-19T01:34:40;9.10;99.90
5011;DHT22;2524;54.364;10.072;2023-10-19T01:37:06;9.10;99.90
5011;DHT22;2524;54.364;10.072;2023-10-19T01:39:34;9.10;99.90
5011;DHT22;2524;54.364;10.072;2023-10-19T01:42:04;9.10;99.90
5011;DHT22;2524;54.364;10.072;2023-10-19T01:44:30;9.10;99.90
5011;DHT22;2524;54.364;10.072;2023-10-19T01:46:56;9.10;99.90
5011;DHT22;2524;54.364;10.072;2023-10-19T01:49:22;9.10;99.90
5011;DHT22;2524;54.364;10.072;2023-10-19T01:51:54;9.10;99.90
5011;DHT22;2524;54.364;10.072;2023-10-19T01:54:21;9.10;99.90
5011;DHT22;2524;54.364;10.072;2023-10-19T01:56:54;9.10;99.90
5011;DHT22;2524;54.364;10.072;2023-10-19T01:59:23;9.10;99.90
5011;DHT22;2524;54.364;10.072;2023-10-19T02:01:55;9.10;99.90
5011;DHT22;2524;54.364;10.072;2023-10-19T02:04:21;9.10;99.90
5011;DHT22;2524;54.364;10.072;2023-10-19T02:06:47;9.10;99.90
5011;DHT22;2524;54.364;10.072;2023-10-19T02:09:13;9.10;99.90
5011;DHT22;2524;54.364;10.072;2023-10-19T02:12:14;9.10;99.90
5011;DHT22;2524;54.364;10.072;2023-10-19T02:14:42;9.10;99.90
5011;DHT22;2524;54.364;10.072;2023-10-19T02:17:09;9.10;99.90
5011;DHT22;2524;54.364;10.072;2023-10-19T02:19:35;9.10;99.90
5011;DHT22;2524;54.364;10.072;2023-10-19T02:22:02;9.10;99.90
5011;DHT22;2524;54.364;10.072;2023-10-19T02:24:33;9.10;99.90
5011;DHT22;2524;54.364;10.072;2023-10-19T02:26:59;9.10;99.90
5011;DHT22;2524;54.364;10.072;2023-10-19T02:29:26;9.10;99.90
5011;DHT22;2524;54.364;10.072;2023-10-19T02:31:52;9.20;99.90
5011;DHT22;2524;54.364;10.072;2023-10-19T02:34:19;9.10;99.90
5011;DHT22;2524;54.364;10.072;2023-10-19T02:36:45;9.20;99.90
5011;DHT22;2524;54.364;10.072;2023-10-19T02:39:14;9.20;99.90
5011;DHT22;2524;54.364;10.072;2023-10-19T02:41:44;9.20;99.90
5011;DHT22;2524;54.364;10.072;2023-10-19T02:44:11;9.20;99.90
5011;DHT22;2524;54.364;10.072;2023-10-19T02:46:57;9.20;99.90
5011;DHT22;2524;54.364;10.072;2023-10-19T02:49:24;9.20;99.90
5011;DHT22;2524;54.364;10.072;2023-10-19T02:51:53;9.20;99.90
5011;DHT22;2524;54.364;10.072;2023-10-19T02:54:22;9.20;99.90
5011;DHT22;2524;54.364;10.072;2023-10-19T02:56:52;9.20;99.90
5011;DHT22;2524;54.364;10.072;2023-10-19T02:59:20;9.20;99.90
5011;DHT22;2524;54.364;10.072;2023-10-19T03:01:52;9.20;99.90
5011;DHT22;2524;54.364;10.072;2023-10-19T03:04:18;9.20;99.90
5011;DHT22;2524;54.364;10.072;2023-10-19T03:06:43;9.20;99.90
5011;DHT22;2524;54.364;10.072;2023-10-19T03:09:09;9.30;99.90
5011;DHT22;2524;54.364;10.072;2023-10-19T03:11:48;9.30;99.90
5011;DHT22;2524;54.364;10.072;2023-10-19T03:14:18;9.30;99.90
5011;DHT22;2524;54.364;10.072;2023-10-19T03:16:44;9.30;99.90
5011;DHT22;2524;54.364;10.072;2023-10-19T03:19:11;9.30;99.90
5011;DHT22;2524;54.364;10.072;2023-10-19T03:21:38;9.30;99.90
5011;DHT22;2524;54.364;10.072;2023-10-19T03:24:09;9.30;99.90
5011;DHT22;2524;54.364;10.072;2023-10-19T03:26:38;9.30;99.90
5011;DHT22;2524;54.364;10.072;2023-10-19T03:29:08;9.40;99.90
5011;DHT22;2524;54.364;10.072;2023-10-19T03:31:37;9.30;99.90
5011;DHT22;2524;54.364;10.072;2023-10-19T03:34:12;9.30;99.90
5011;DHT22;2524;54.364;10.072;2023-10-19T03:36:44;9.30;99.90
5011;DHT22;2524;54.364;10.072;2023-10-19T03:39:10;9.30;99.90
5011;DHT22;2524;54.364;10.072;2023-10-19T03:41:41;9.30;99.90
5011;DHT22;2524;54.364;10.072;2023-10-19T03:44:10;9.30;99.90
5011;DHT22;2524;54.364;10.072;2023-10-19T03:47:02;9.40;99.90
5011;DHT22;2524;54.364;10.072;2023-10-19T03:49:30;9.40;99.90
5011;DHT22;2524;54.364;10.072;2023-10-19T03:52:01;9.40;99.90
5011;DHT22;2524;54.364;10.072;2023-10-19T03:54:36;9.30;99.90
5011;DHT22;2524;54.364;10.072;2023-10-19T03:57:06;9.40;99.90
5011;DHT22;2524;54.364;10.072;2023-10-19T03:59:35;9.40;99.90
5011;DHT22;2524;54.364;10.072;2023-10-19T04:02:03;9.40;99.90
5011;DHT22;2524;54.364;10.072;2023-10-19T04:04:36;9.40;99.90
5011;DHT22;2524;54.364;10.072;2023-10-19T04:07:01;9.40;99.90
5011;DHT22;2524;54.364;10.072;2023-10-19T04:09:36;9.40;99.90
5011;DHT22;2524;54.364;10.072;2023-10-19T04:12:14;9.40;99.90
5011;DHT22;2524;54.364;10.072;2023-10-19T04:14:42;9.40;99.90
5011;DHT22;2524;54.364;10.072;2023-10-19T04:17:08;9.40;99.90
5011;DHT22;2524;54.364;10.072;2023-10-19T04:19:37;9.40;99.90
5011;DHT22;2524;54.364;10.072;2023-10-19T04:22:03;9.40;99.90
5011;DHT22;2524;54.364;10.072;2023-10-19T04:24:30;9.40;99.90
5011;DHT22;2524;54.364;10.072;2023-10-19T04:26:58;9.40;99.90
5011;DHT22;2524;54.364;10.072;2023-10-19T04:29:25;9.40;99.90
5011;DHT22;2524;54.364;10.072;2023-10-19T04:31:53;9.40;99.90
5011;DHT22;2524;54.364;10.072;2023-10-19T04:34:22;9.50;99.90
5011;DHT22;2524;54.364;10.072;2023-10-19T04:36:51;9.40;99.90
5011;DHT22;2524;54.364;10.072;2023-10-19T04:39:18;9.40;99.90
5011;DHT22;2524;54.364;10.072;2023-10-19T04:41:45;9.40;99.90
5011;DHT22;2524;54.364;10.072;2023-10-19T04:44:14;9.40;99.90
5011;DHT22;2524;54.364;10.072;2023-10-19T04:46:41;9.40;99.90
5011;DHT22;2524;54.364;10.072;2023-10-19T04:49:07;9.40;99.90
5011;DHT22;2524;54.364;10.072;2023-10-19T04:51:33;9.50;99.90
5011;DHT22;2524;54.364;10.072;2023-10-19T04:53:59;9.40;99.90
5011;DHT22;2524;54.364;10.072;2023-10-19T04:56:25;9.50;99.90
5011;DHT22;2524;54.364;10.072;2023-10-19T04:58:51;9.50;99.90
5011;DHT22;2524;54.364;10.072;2023-10-19T05:01:16;9.50;99.90
5011;DHT22;2524;54.364;10.072;2023-10-19T05:03:42;9.50;99.90
5011;DHT22;2524;54.364;10.072;2023-10-19T05:06:07;9.50;99.90
5011;DHT22;2524;54.364;10.072;2023-10-19T05:08:35;9.40;99.90
5011;DHT22;2524;54.364;10.072;2023-10-19T05:11:02;9.50;99.90
5011;DHT22;2524;54.364;10.072;2023-10-19T05:13:30;9.50;99.90
5011;DHT22;2524;54.364;10.072;2023-10-19T05:15:55;9.50;99.90
5011;DHT22;2524;54.364;10.072;2023-10-19T05:18:22;9.50;99.90
5011;DHT22;2524;54.364;10.072;2023-10-19T05:20:48;9.40;99.90
5011;DHT22;2524;54.364;10.072;2023-10-19T05:23:15;9.50;99.90
5011;DHT22;2524;54.364;10.072;2023-10-19T05:25:40;9.40;99.90
5011;DHT22;2524;54.364;10.072;2023-10-19T05:28:06;9.40;99.90
5011;DHT22;2524;54.364;10.072;2023-10-19T05:30:33;9.40;99.90
5011;DHT22;2524;54.364;10.072;2023-10-19T05:32:59;9.50;99.90
5011;DHT22;2524;54.364;10.072;2023-10-19T05:35:27;9.40;99.90
5011;DHT22;2524;54.364;10.072;2023-10-19T05:37:53;9.50;99.90
5011;DHT22;2524;54.364;10.072;2023-10-19T05:40:24;9.50;99.90
5011;DHT22;2524;54.364;10.072;2023-10-19T05:42:56;9.50;99.90
5011;DHT22;2524;54.364;10.072;2023-10-19T05:45:22;9.50;99.90
5011;DHT22;2524;54.364;10.072;2023-10-19T05:47:48;9.50;99.90
5011;DHT22;2524;54.364;10.072;2023-10-19T05:50:13;9.50;99.90
5011;DHT22;2524;54.364;10.072;2023-10-19T05:52:43;9.50;99.90
5011;DHT22;2524;54.364;10.072;2023-10-19T05:55:12;9.50;99.90
5011;DHT22;2524;54.364;10.072;2023-10-19T05:57:38;9.50;99.90
5011;DHT22;2524;54.364;10.072;2023-10-19T06:00:07;9.50;99.90
5011;DHT22;2524;54.364;10.072;2023-10-19T06:02:33;9.50;99.90
5011;DHT22;2524;54.364;10.072;2023-10-19T06:05:00;9.50;99.90
5011;DHT22;2524;54.364;10.072;2023-10-19T06:07:26;9.50;99.90
5011;DHT22;2524;54.364;10.072;2023-10-19T06:09:52;9.50;99.90
5011;DHT22;2524;54.364;10.072;2023-10-19T06:12:17;9.50;99.90
5011;DHT22;2524;54.364;10.072;2023-10-19T06:14:44;9.50;99.90
5011;DHT22;2524;54.364;10.072;2023-10-19T06:17:09;9.50;99.90
5011;DHT22;2524;54.364;10.072;2023-10-19T06:19:35;9.50;99.90
5011;DHT22;2524;54.364;10.072;2023-10-19T06:22:00;9.60;99.90
5011;DHT22;2524;54.364;10.072;2023-10-19T06:24:28;9.60;99.90
5011;DHT22;2524;54.364;10.072;2023-10-19T06:26:53;9.60;99.90
5011;DHT22;2524;54.364;10.072;2023-10-19T06:29:19;9.60;99.90
5011;DHT22;2524;54.364;10.072;2023-10-19T06:31:44;9.60;99.90
5011;DHT22;2524;54.364;10.072;2023-10-19T06:34:10;9.60;99.90
5011;DHT22;2524;54.364;10.072;2023-10-19T06:36:36;9.60;99.90
5011;DHT22;2524;54.364;10.072;2023-10-19T06:39:01;9.60;99.90
5011;DHT22;2524;54.364;10.072;2023-10-19T06:41:31;9.60;99.90
5011;DHT22;2524;54.364;10.072;2023-10-19T06:43:57;9.60;99.90
5011;DHT22;2524;54.364;10.072;2023-10-19T06:46:24;9.60;99.90
5011;DHT22;2524;54.364;10.072;2023-10-19T06:48:49;9.60;99.90
5011;DHT22;2524;54.364;10.072;2023-10-19T06:51:16;9.60;99.90
5011;DHT22;2524;54.364;10.072;2023-10-19T06:53:42;9.60;99.90
5011;DHT22;2524;54.364;10.072;2023-10-19T06:56:07;9.60;99.90
5011;DHT22;2524;54.364;10.072;2023-10-19T06:58:33;9.60;99.90
5011;DHT22;2524;54.364;10.072;2023-10-19T07:00:59;9.60;99.90
5011;DHT22;2524;54.364;10.072;2023-10-19T07:03:30;9.80;99.90
5011;DHT22;2524;54.364;10.072;2023-10-19T07:05:56;9.70;99.90
5011;DHT22;2524;54.364;10.072;2023-10-19T07:08:23;9.70;99.90
5011;DHT22;2524;54.364;10.072;2023-10-19T07:10:49;9.70;99.90
5011;DHT22;2524;54.364;10.072;2023-10-19T07:13:17;9.70;99.90
5011;DHT22;2524;54.364;10.072;2023-10-19T07:15:47;9.70;99.90
5011;DHT22;2524;54.364;10.072;2023-10-19T07:18:13;9.70;99.90
5011;DHT22;2524;54.364;10.072;2023-10-19T07:20:39;9.70;99.90
5011;DHT22;2524;54.364;10.072;2023-10-19T07:23:05;9.70;99.90
5011;DHT22;2524;54.364;10.072;2023-10-19T07:25:47;9.70;99.90
5011;DHT22;2524;54.364;10.072;2023-10-19T07:28:18;9.70;99.90
5011;DHT22;2524;54.364;10.072;2023-10-19T07:30:45;9.70;99.90
5011;DHT22;2524;54.364;10.072;2023-10-19T07:33:12;9.70;99.90
5011;DHT22;2524;54.364;10.072;2023-10-19T07:35:43;9.80;99.90
5011;DHT22;2524;54.364;10.072;2023-10-19T07:38:09;9.80;99.90
5011;DHT22;2524;54.364;10.072;2023-10-19T07:40:35;9.80;99.90
5011;DHT22;2524;54.364;10.072;2023-10-19T07:43:01;9.80;99.90
5011;DHT22;2524;54.364;10.072;2023-10-19T07:45:29;9.80;99.90
5011;DHT22;2524;54.364;10.072;2023-10-19T07:47:57;10.00;99.90
5011;DHT22;2524;54.364;10.072;2023-10-19T07:50:22;9.80;99.90
5011;DHT22;2524;54.364;10.072;2023-10-19T07:52:52;9.80;99.90
5011;DHT22;2524;54.364;10.072;2023-10-19T07:55:22;9.80;99.90
5011;DHT22;2524;54.364;10.072;2023-10-19T07:57:52;9.90;99.90
5011;DHT22;2524;54.364;10.072;2023-10-19T08:00:20;9.80;99.90
5011;DHT22;2524;54.364;10.072;2023-10-19T08:02:46;9.80;99.90
5011;DHT22;2524;54.364;10.072;2023-10-19T08:05:16;9.90;99.90
5011;DHT22;2524;54.364;10.072;2023-10-19T08:07:45;9.90;99.90
5011;DHT22;2524;54.364;10.072;2023-10-19T08:10:13;9.90;99.90
5011;DHT22;2524;54.364;10.072;2023-10-19T08:12:39;10.00;99.90
5011;DHT22;2524;54.364;10.072;2023-10-19T08:15:09;9.90;99.90
5011;DHT22;2524;54.364;10.072;2023-10-19T08:17:40;9.90;99.90
5011;DHT22;2524;54.364;10.072;2023-10-19T08:20:07;9.90;99.90
5011;DHT22;2524;54.364;10.072;2023-10-19T08:22:36;10.00;99.90
5011;DHT22;2524;54.364;10.072;2023-10-19T08:25:03;10.10;99.90
5011;DHT22;2524;54.364;10.072;2023-10-19T08:27:29;10.00;99.90
5011;DHT22;2524;54.364;10.072;2023-10-19T08:29:55;10.00;99.90
5011;DHT22;2524;54.364;10.072;2023-10-19T08:32:21;10.00;99.90
5011;DHT22;2524;54.364;10.072;2023-10-19T08:34:46;10.00;99.90
5011;DHT22;2524;54.364;10.072;2023-10-19T08:37:12;10.00;99.90
5011;DHT22;2524;54.364;10.072;2023-10-19T08:39:38;10.00;99.90
5011;DHT22;2524;54.364;10.072;2023-10-19T08:42:04;10.00;99.90
5011;DHT22;2524;54.364;10.072;2023-10-19T08:44:31;10.00;99.90
5011;DHT22;2524;54.364;10.072;2023-10-19T08:46:57;10.00;99.90
5011;DHT22;2524;54.364;10.072;2023-10-19T08:49:24;10.00;99.90
5011;DHT22;2524;54.364;10.072;2023-10-19T08:51:51;10.00;99.90
5011;DHT22;2524;54.364;10.072;2023-10-19T08:54:20;10.00;99.90
5011;DHT22;2524;54.364;10.072;2023-10-19T08:56:46;10.00;99.90
5011;DHT22;2524;54.364;10.072;2023-10-19T08:59:13;10.10;99.90
5011;DHT22;2524;54.364;10.072;2023-10-19T09:01:41;10.00;99.90
5011;DHT22;2524;54.364;10.072;2023-10-19T09:04:10;10.00;99.90
5011;DHT22;2524;54.364;10.072;2023-10-19T09:06:37;10.10;99.90
5011;DHT22;2524;54.364;10.072;2023-10-19T09:09:10;10.10;99.90
5011;DHT22;2524;54.364;10.072;2023-10-19T09:11:48;10.10;99.90
5011;DHT22;2524;54.364;10.072;2023-10-19T09:14:17;10.10;99.90
5011;DHT22;2524;54.364;10.072;2023-10-19T09:16:56;10.10;99.90
5011;DHT22;2524;54.364;10.072;2023-10-19T09:19:42;10.10;99.90
5011;DHT22;2524;54.364;10.072;2023-10-19T09:22:09;10.10;99.90
5011;DHT22;2524;54.364;10.072;2023-10-19T09:24:49;10.10;99.90
5011;DHT22;2524;54.364;10.072;2023-10-19T09:27:18;10.10;99.90
5011;DHT22;2524;54.364;10.072;2023-10-19T09:29:44;10.10;99.90
5011;DHT22;2524;54.364;10.072;2023-10-19T09:32:10;10.10;99.90
5011;DHT22;2524;54.364;10.072;2023-10-19T09:34:40;10.10;99.90
5011;DHT22;2524;54.364;10.072;2023-10-19T09:37:10;10.10;99.90
5011;DHT22;2524;54.364;10.072;2023-10-19T09:39:36;10.10;99.90
5011;DHT22;2524;54.364;10.072;2023-10-19T09:42:06;10.10;99.90
5011;DHT22;2524;54.364;10.072;2023-10-19T09:44:59;10.10;99.90
5011;DHT22;2524;54.364;10.072;2023-10-19T09:47:34;10.10;99.90
5011;DHT22;2524;54.364;10.072;2023-10-19T09:50:02;10.10;99.90
5011;DHT22;2524;54.364;10.072;2023-10-19T09:52:31;10.10;99.90
5011;DHT22;2524;54.364;10.072;2023-10-19T09:55:07;10.10;99.90
5011;DHT22;2524;54.364;10.072;2023-10-19T10:00:23;10.10;99.90
5011;DHT22;2524;54.364;10.072;2023-10-19T10:02:50;10.20;99.90
5011;DHT22;2524;54.364;10.072;2023-10-19T10:10:48;10.20;99.90
5011;DHT22;2524;54.364;10.072;2023-10-19T10:15:49;10.10;99.90
5011;DHT22;2524;54.364;10.072;2023-10-19T10:18:15;10.10;99.90
5011;DHT22;2524;54.364;10.072;2023-10-19T10:20:42;10.10;99.90
5011;DHT22;2524;54.364;10.072;2023-10-19T10:23:18;10.30;99.90
5011;DHT22;2524;54.364;10.072;2023-10-19T10:25:47;10.10;99.90
5011;DHT22;2524;54.364;10.072;2023-10-19T10:28:16;10.10;99.90
5011;DHT22;2524;54.364;10.072;2023-10-19T10:31:14;10.10;99.90
5011;DHT22;2524;54.364;10.072;2023-10-19T10:33:52;10.10;99.90
5011;DHT22;2524;54.364;10.072;2023-10-19T10:36:20;10.10;99.90
5011;DHT22;2524;54.364;10.072;2023-10-19T10:38:51;10.10;99.90
5011;DHT22;2524;54.364;10.072;2023-10-19T10:41:23;10.20;99.90
5011;DHT22;2524;54.364;10.072;2023-10-19T10:43:58;10.10;99.90
5011;DHT22;2524;54.364;10.072;2023-10-19T10:46:26;10.20;99.90
5011;DHT22;2524;54.364;10.072;2023-10-19T10:48:56;10.10;99.90
5011;DHT22;2524;54.364;10.072;2023-10-19T10:51:27;10.20;99.90
5011;DHT22;2524;54.364;10.072;2023-10-19T10:53:54;10.10;99.90
5011;DHT22;2524;54.364;10.072;2023-10-19T10:56:23;10.10;99.90
5011;DHT22;2524;54.364;10.072;2023-10-19T10:58:49;10.10;99.90
5011;DHT22;2524;54.364;10.072;2023-10-19T11:01:27;10.10;99.90
5011;DHT22;2524;54.364;10.072;2023-10-19T11:04:05;10.10;99.90
5011;DHT22;2524;54.364;10.072;2023-10-19T11:06:31;10.10;99.90
5011;DHT22;2524;54.364;10.072;2023-10-19T11:08:56;10.10;99.90
5011;DHT22;2524;54.364;10.072;2023-10-19T11:11:22;10.20;99.90
5011;DHT22;2524;54.364;10.072;2023-10-19T11:13:48;10.10;99.90
5011;DHT22;2524;54.364;10.072;2023-10-19T11:16:22;10.10;99.90
5011;DHT22;2524;54.364;10.072;2023-10-19T11:18:49;10.20;99.90
5011;DHT22;2524;54.364;10.072;2023-10-19T11:21:15;10.10;99.90
5011;DHT22;2524;54.364;10.072;2023-10-19T11:23:44;10.10;99.90
5011;DHT22;2524;54.364;10.072;2023-10-19T11:26:11;10.10;99.90
5011;DHT22;2524;54.364;10.072;2023-10-19T11:28:38;10.10;99.90
5011;DHT22;2524;54.364;10.072;2023-10-19T11:31:19;10.10;99.90
5011;DHT22;2524;54.364;10.072;2023-10-19T11:33:46;10.00;99.90
5011;DHT22;2524;54.364;10.072;2023-10-19T11:36:19;10.00;99.90
5011;DHT22;2524;54.364;10.072;2023-10-19T11:38:47;10.00;99.90
5011;DHT22;2524;54.364;10.072;2023-10-19T11:41:14;10.00;99.90
5011;DHT22;2524;54.364;10.072;2023-10-19T11:43:41;10.10;99.90
5011;DHT22;2524;54.364;10.072;2023-10-19T11:46:07;10.00;99.90
5011;DHT22;2524;54.364;10.072;2023-10-19T11:48:33;10.00;99.90
5011;DHT22;2524;54.364;10.072;2023-10-19T11:51:00;10.10;99.90
5011;DHT22;2524;54.364;10.072;2023-10-19T11:53:35;10.00;99.90
5011;DHT22;2524;54.364;10.072;2023-10-19T11:56:03;10.00;99.90
5011;DHT22;2524;54.364;10.072;2023-10-19T11:58:30;10.00;99.90
5011;DHT22;2524;54.364;10.072;2023-10-19T12:00:58;10.10;99.90
5011;DHT22;2524;54.364;10.072;2023-10-19T12:03:24;10.00;99.90
5011;DHT22;2524;54.364;10.072;2023-10-19T12:05:51;10.00;99.90
5011;DHT22;2524;54.364;10.072;2023-10-19T12:08:18;10.00;99.90
5011;DHT22;2524;54.364;10.072;2023-10-19T12:10:44;10.20;99.90
5011;DHT22;2524;54.364;10.072;2023-10-19T12:13:09;10.00;99.90
5011;DHT22;2524;54.364;10.072;2023-10-19T12:15:35;10.00;99.90
5011;DHT22;2524;54.364;10.072;2023-10-19T12:18:01;10.10;99.90
5011;DHT22;2524;54.364;10.072;2023-10-19T12:20:31;10.00;99.90
5011;DHT22;2524;54.364;10.072;2023-10-19T12:22:57;10.00;99.90
5011;DHT22;2524;54.364;10.072;2023-10-19T12:25:24;10.00;99.90
5011;DHT22;2524;54.364;10.072;2023-10-19T12:28:00;10.00;99.90
5011;DHT22;2524;54.364;10.072;2023-10-19T12:30:26;9.90;99.90
5011;DHT22;2524;54.364;10.072;2023-10-19T12:32:59;9.90;99.90
5011;DHT22;2524;54.364;10.072;2023-10-19T12:35:25;9.90;99.90
5011;DHT22;2524;54.364;10.072;2023-10-19T12:38:02;9.90;99.90
5011;DHT22;2524;54.364;10.072;2023-10-19T12:40:32;9.90;99.90
5011;DHT22;2524;54.364;10.072;2023-10-19T12:43:00;10.00;99.90
5011;DHT22;2524;54.364;10.072;2023-10-19T12:45:32;9.90;99.90
5011;DHT22;2524;54.364;10.072;2023-10-19T12:48:05;9.80;99.90
5011;DHT22;2524;54.364;10.072;2023-10-19T12:50:32;9.80;99.90
5011;DHT22;2524;54.364;10.072;2023-10-19T12:52:59;9.80;99.90
5011;DHT22;2524;54.364;10.072;2023-10-19T12:55:26;9.80;99.90
5011;DHT22;2524;54.364;10.072;2023-10-19T12:57:59;9.80;99.90
5011;DHT22;2524;54.364;10.072;2023-10-19T13:00:32;9.80;99.90
5011;DHT22;2524;54.364;10.072;2023-10-19T13:03:09;9.80;99.90
5011;DHT22;2524;54.364;10.072;2023-10-19T13:05:39;9.80;99.90
5011;DHT22;2524;54.364;10.072;2023-10-19T13:08:12;9.80;99.90
5011;DHT22;2524;54.364;10.072;2023-10-19T13:10:40;9.80;99.90
5011;DHT22;2524;54.364;10.072;2023-10-19T13:13:09;9.80;99.90
5011;DHT22;2524;54.364;10.072;2023-10-19T13:15:40;9.80;99.90
5011;DHT22;2524;54.364;10.072;2023-10-19T13:18:08;9.80;99.90
5011;DHT22;2524;54.364;10.072;2023-10-19T13:20:39;9.80;99.90
5011;DHT22;2524;54.364;10.072;2023-10-19T13:23:09;9.80;99.90
5011;DHT22;2524;54.364;10.072;2023-10-19T13:25:41;9.80;99.90
5011;DHT22;2524;54.364;10.072;2023-10-19T13:28:16;9.80;99.90
5011;DHT22;2524;54.364;10.072;2023-10-19T13:30:50;9.80;99.90
5011;DHT22;2524;54.364;10.072;2023-10-19T13:33:17;9.80;99.90
5011;DHT22;2524;54.364;10.072;2023-10-19T13:35:45;9.80;99.90
5011;DHT22;2524;54.364;10.072;2023-10-19T13:38:11;9.80;99.90
5011;DHT22;2524;54.364;10.072;2023-10-19T13:40:39;9.80;99.90
5011;DHT22;2524;54.364;10.072;2023-10-19T13:43:06;9.80;99.90
5011;DHT22;2524;54.364;10.072;2023-10-19T13:45:36;9.90;99.90
5011;DHT22;2524;54.364;10.072;2023-10-19T13:48:03;9.80;99.90
5011;DHT22;2524;54.364;10.072;2023-10-19T13:50:30;9.80;99.90
5011;DHT22;2524;54.364;10.072;2023-10-19T13:52:56;9.80;99.90
5011;DHT22;2524;54.364;10.072;2023-10-19T13:55:23;9.80;99.90
5011;DHT22;2524;54.364;10.072;2023-10-19T13:57:48;9.80;99.90
5011;DHT22;2524;54.364;10.072;2023-10-19T14:00:16;9.80;99.90
5011;DHT22;2524;54.364;10.072;2023-10-19T14:02:56;9.80;99.90
5011;DHT22;2524;54.364;10.072;2023-10-19T14:05:23;9.80;99.90
5011;DHT22;2524;54.364;10.072;2023-10-19T14:07:50;9.80;99.90
5011;DHT22;2524;54.364;10.072;2023-10-19T14:10:17;10.00;99.90
5011;DHT22;2524;54.364;10.072;2023-10-19T14:12:45;9.90;99.90
5011;DHT22;2524;54.364;10.072;2023-10-19T14:15:17;9.90;99.90
5011;DHT22;2524;54.364;10.072;2023-10-19T14:17:43;9.90;99.90
5011;DHT22;2524;54.364;10.072;2023-10-19T14:20:10;9.90;99.90
5011;DHT22;2524;54.364;10.072;2023-10-19T14:22:39;9.90;99.90
5011;DHT22;2524;54.364;10.072;2023-10-19T14:25:05;9.90;99.90
5011;DHT22;2524;54.364;10.072;2023-10-19T14:27:34;10.00;99.90
5011;DHT22;2524;54.364;10.072;2023-10-19T14:30:00;10.00;99.90
5011;DHT22;2524;54.364;10.072;2023-10-19T14:32:31;10.10;99.90
5011;DHT22;2524;54.364;10.072;2023-10-19T14:34:56;10.00;99.90
5011;DHT22;2524;54.364;10.072;2023-10-19T14:37:22;9.90;99.90
5011;DHT22;2524;54.364;10.072;2023-10-19T14:39:47;10.00;99.90
5011;DHT22;2524;54.364;10.072;2023-10-19T14:42:13;10.00;99.90
5011;DHT22;2524;54.364;10.072;2023-10-19T14:44:38;10.00;99.90
5011;DHT22;2524;54.364;10.072;2023-10-19T14:47:05;10.00;99.90
5011;DHT22;2524;54.364;10.072;2023-10-19T14:49:31;10.10;99.90
5011;DHT22;2524;54.364;10.072;2023-10-19T14:51:57;10.00;99.90
5011;DHT22;2524;54.364;10.072;2023-10-19T14:54:22;10.00;99.90
5011;DHT22;2524;54.364;10.072;2023-10-19T14:56:48;10.00;99.90
5011;DHT22;2524;54.364;10.072;2023-10-19T14:59:13;10.00;99.90
5011;DHT22;2524;54.364;10.072;2023-10-19T15:01:39;10.10;99.90
5011;DHT22;2524;54.364;10.072;2023-10-19T15:04:05;10.00;99.90
5011;DHT22;2524;54.364;10.072;2023-10-19T15:06:31;10.00;99.90
5011;DHT22;2524;54.364;10.072;2023-10-19T15:08:57;10.00;99.90
5011;DHT22;2524;54.364;10.072;2023-10-19T15:11:22;10.00;99.90
5011;DHT22;2524;54.364;10.072;2023-10-19T15:13:50;10.00;99.90
5011;DHT22;2524;54.364;10.072;2023-10-19T15:16:16;10.00;99.90
5011;DHT22;2524;54.364;10.072;2023-10-19T15:18:42;10.10;99.90
5011;DHT22;2524;54.364;10.072;2023-10-19T15:21:09;10.00;99.90
5011;DHT22;2524;54.364;10.072;2023-10-19T15:23:35;10.00;99.90
5011;DHT22;2524;54.364;10.072;2023-10-19T15:26:00;9.90;99.90
5011;DHT22;2524;54.364;10.072;2023-10-19T15:28:27;9.90;99.90
5011;DHT22;2524;54.364;10.072;2023-10-19T15:30:57;9.90;99.90
5011;DHT22;2524;54.364;10.072;2023-10-19T15:33:24;9.90;99.90
5011;DHT22;2524;54.364;10.072;2023-10-19T15:35:50;9.90;99.90
5011;DHT22;2524;54.364;10.072;2023-10-19T15:38:16;9.90;99.90
5011;DHT22;2524;54.364;10.072;2023-10-19T15:40:42;9.90;99.90
5011;DHT22;2524;54.364;10.072;2023-10-19T15:43:07;9.90;99.90
5011;DHT22;2524;54.364;10.072;2023-10-19T15:45:33;9.80;99.90
5011;DHT22;2524;54.364;10.072;2023-10-19T15:48:03;9.80;99.90
5011;DHT22;2524;54.364;10.072;2023-10-19T15:50:29;9.80;99.90
5011;DHT22;2524;54.364;10.072;2023-10-19T15:52:55;9.80;99.90
5011;DHT22;2524;54.364;10.072;2023-10-19T15:55:20;9.80;99.90
5011;DHT22;2524;54.364;10.072;2023-10-19T15:57:50;9.80;99.90
5011;DHT22;2524;54.364;10.072;2023-10-19T16:00:16;9.80;99.90
5011;DHT22;2524;54.364;10.072;2023-10-19T16:02:42;9.80;99.90
5011;DHT22;2524;54.364;10.072;2023-10-19T16:05:08;9.80;99.90
5011;DHT22;2524;54.364;10.072;2023-10-19T16:07:35;9.80;99.90
5011;DHT22;2524;54.364;10.072;2023-10-19T16:10:02;9.80;99.90
5011;DHT22;2524;54.364;10.072;2023-10-19T16:12:28;9.80;99.90
5011;DHT22;2524;54.364;10.072;2023-10-19T16:14:53;9.90;99.90
5011;DHT22;2524;54.364;10.072;2023-10-19T16:17:19;9.90;99.90
5011;DHT22;2524;54.364;10.072;2023-10-19T16:19:45;9.80;99.90